Time;durP1;ratioP1;P1;durP2;ratioP2;P2;SDS_P1;SDS_P2;PMS_P1;PMS_P2;Temp;Humidity;BMP_temperature;BMP_pressure;BME280_temperature;BME280_humidity;BME280_pressure;Samples;Min_cycle;Max_cycle;Signal;HPM_P1;HPM_P2
2022/10/12 00:02:22;;;;;;;11.30;10.20;;;9.80;75.50;;;;;;5095450;28;20447;-72
2022/10/12 00:04:49;;;;;;;12.63;10.30;;;9.80;75.70;;;;;;5096322;28;20477;-73
2022/10/12 00:07:15;;;;;;;14.43;10.43;;;9.70;75.60;;;;;;5095710;28;20452;-73
2022/10/12 00:09:42;;;;;;;15.47;11.37;;;9.80;75.70;;;;;;5095254;28;20478;-73
2022/10/12 00:12:10;;;;;;;13.37;11.93;;;9.70;75.60;;;;;;5095334;28;20484;-73
2022/10/12 00:14:38;;;;;;;13.83;11.33;;;9.70;75.40;;;;;;5095097;28;20999;-73
2022/10/12 00:17:04;;;;;;;11.93;10.73;;;9.70;75.50;;;;;;5095123;28;20921;-72
2022/10/12 00:19:31;;;;;;;15.27;10.70;;;9.70;75.30;;;;;;5095004;28;20468;-72
2022/10/12 00:21:58;;;;;;;12.37;11.07;;;9.70;75.30;;;;;;5094924;28;20443;-72
2022/10/12 00:24:25;;;;;;;18.23;12.13;;;9.70;75.40;;;;;;5094866;28;20474;-72
2022/10/12 00:26:52;;;;;;;12.27;10.70;;;9.70;75.50;;;;;;5094968;28;20453;-72
2022/10/12 00:29:20;;;;;;;12.53;11.00;;;9.80;75.80;;;;;;5094934;28;20479;-72
2022/10/12 00:31:46;;;;;;;15.73;13.03;;;9.70;76.90;;;;;;5096201;28;20937;-72
2022/10/12 00:34:13;;;;;;;15.13;11.43;;;9.80;76.20;;;;;;5115340;28;20440;-71
2022/10/12 00:36:40;;;;;;;11.90;10.20;;;9.70;76.30;;;;;;5106220;28;20445;-72
2022/10/12 00:39:09;;;;;;;20.27;13.00;;;9.70;76.40;;;;;;5095598;28;20992;-72
2022/10/12 00:41:38;;;;;;;13.30;11.90;;;9.60;76.50;;;;;;5095096;28;20457;-73
2022/10/12 00:44:36;;;;;;;16.37;12.17;;;9.60;76.50;;;;;;5094796;28;20453;-73
2022/10/12 00:47:07;;;;;;;15.20;12.03;;;9.60;76.80;;;;;;5094625;28;20436;-73
2022/10/12 00:49:35;;;;;;;16.70;10.93;;;9.50;76.90;;;;;;5094677;28;20463;-73
2022/10/12 00:52:06;;;;;;;14.90;12.07;;;9.50;77.10;;;;;;5094613;28;20487;-73
2022/10/12 00:54:37;;;;;;;15.60;12.17;;;9.50;77.20;;;;;;5094748;28;20443;-73
2022/10/12 00:57:05;;;;;;;12.60;11.30;;;9.50;77.20;;;;;;5094744;28;20436;-72
2022/10/12 00:59:36;;;;;;;14.93;12.00;;;9.50;77.40;;;;;;5094495;28;20468;-73
2022/10/12 01:02:03;;;;;;;12.57;10.87;;;9.40;77.20;;;;;;5094016;28;20440;-72
2022/10/12 01:04:32;;;;;;;18.20;11.90;;;9.40;77.40;;;;;;5094038;28;20455;-73
2022/10/12 01:07:00;;;;;;;12.43;10.93;;;9.30;77.40;;;;;;5094263;28;20445;-73
2022/10/12 01:09:27;;;;;;;15.40;12.00;;;9.30;77.70;;;;;;5094409;28;20472;-73
2022/10/12 01:11:56;;;;;;;14.33;11.83;;;9.30;77.60;;;;;;5094232;28;20487;-73
2022/10/12 01:14:23;;;;;;;13.70;11.70;;;9.30;77.60;;;;;;5094247;28;20440;-73
2022/10/12 01:16:54;;;;;;;15.13;11.60;;;9.30;77.50;;;;;;5094021;28;20449;-73
2022/10/12 01:19:41;;;;;;;13.10;11.50;;;9.20;77.30;;;;;;5094571;28;20482;-72
2022/10/12 01:22:11;;;;;;;13.50;10.90;;;9.20;77.50;;;;;;5094265;28;20435;-72
2022/10/12 01:24:45;;;;;;;17.17;12.87;;;9.20;77.80;;;;;;5093861;28;20464;-73
2022/10/12 01:27:34;;;;;;;13.23;10.30;;;9.10;77.70;;;;;;5093779;28;20809;-73
2022/10/12 01:30:22;;;;;;;16.03;11.00;;;9.10;78.20;;;;;;5093691;28;20474;-73
2022/10/12 01:33:28;;;;;;;14.13;11.50;;;9.00;78.00;;;;;;5094552;28;20482;-73
2022/10/12 01:36:00;;;;;;;15.50;10.90;;;9.00;78.10;;;;;;5031467;28;20457;-73
2022/10/12 01:38:41;;;;;;;14.27;10.50;;;8.80;78.00;;;;;;5081510;28;20464;-73
2022/10/12 01:41:15;;;;;;;10.53;9.40;;;8.80;78.50;;;;;;5093633;28;21057;-73
2022/10/12 01:43:44;;;;;;;12.80;11.00;;;8.80;78.80;;;;;;5093790;28;20457;-73
2022/10/12 01:46:42;;;;;;;11.27;9.70;;;8.80;78.60;;;;;;5093773;28;20527;-73
2022/10/12 01:49:09;;;;;;;10.63;9.53;;;8.70;78.60;;;;;;5093654;28;20509;-73
2022/10/12 01:51:48;;;;;;;12.20;9.93;;;8.70;78.90;;;;;;5093677;28;21029;-73
2022/10/12 01:54:26;;;;;;;14.10;9.13;;;8.70;79.00;;;;;;5093892;28;20447;-73
2022/10/12 01:56:57;;;;;;;11.00;9.80;;;8.70;79.20;;;;;;5093777;28;20439;-73
2022/10/12 01:59:34;;;;;;;13.30;10.67;;;8.70;79.30;;;;;;5093590;28;20969;-73
2022/10/12 02:02:11;;;;;;;11.80;9.37;;;8.70;79.30;;;;;;5094015;28;20424;-73
2022/10/12 02:04:42;;;;;;;13.23;9.53;;;8.70;79.30;;;;;;5093766;28;20431;-72
2022/10/12 02:07:15;;;;;;;10.73;9.63;;;8.60;79.10;;;;;;5093816;28;20450;-72
2022/10/12 02:09:42;;;;;;;12.60;9.77;;;8.60;79.70;;;;;;5093324;28;20466;-72
2022/10/12 02:12:13;;;;;;;10.90;9.00;;;8.60;79.90;;;;;;5093636;28;21053;-72
2022/10/12 02:14:43;;;;;;;12.37;10.10;;;8.60;80.20;;;;;;5095829;28;20435;-72
2022/10/12 02:17:14;;;;;;;13.73;10.47;;;8.60;80.20;;;;;;5097801;28;20435;-73
2022/10/12 02:19:44;;;;;;;14.23;10.00;;;8.60;80.00;;;;;;5097110;28;20994;-73
2022/10/12 02:22:12;;;;;;;12.70;10.07;;;8.50;79.80;;;;;;5097607;28;20841;-73
2022/10/12 02:24:43;;;;;;;14.40;9.73;;;8.60;80.20;;;;;;5097615;28;20827;-73
2022/10/12 02:27:13;;;;;;;12.47;9.47;;;8.60;80.30;;;;;;5097462;28;20799;-72
2022/10/12 02:29:42;;;;;;;11.60;10.10;;;8.60;80.30;;;;;;5097521;28;20468;-73
2022/10/12 02:32:17;;;;;;;12.77;9.73;;;8.50;80.20;;;;;;5097632;28;20542;-73
2022/10/12 02:34:48;;;;;;;13.53;9.47;;;8.50;80.20;;;;;;5097364;28;20495;-73
2022/10/12 02:37:23;;;;;;;10.80;9.03;;;8.50;80.30;;;;;;5097369;28;20433;-73
2022/10/12 02:39:53;;;;;;;12.57;9.00;;;8.50;80.40;;;;;;5097080;28;20478;-72
2022/10/12 02:42:25;;;;;;;10.57;9.47;;;8.50;80.50;;;;;;5097472;28;20808;-72
2022/10/12 02:44:54;;;;;;;12.10;8.70;;;8.60;80.70;;;;;;5097406;28;20439;-73
2022/10/12 02:47:25;;;;;;;12.60;9.77;;;8.60;80.90;;;;;;5097243;28;20462;-73
2022/10/12 02:49:53;;;;;;;11.83;8.43;;;8.60;80.70;;;;;;5097123;28;20478;-73
2022/10/12 02:52:20;;;;;;;10.03;8.90;;;8.60;80.70;;;;;;5096717;28;20493;-73
2022/10/12 02:54:47;;;;;;;16.93;8.20;;;8.60;81.00;;;;;;5096953;28;20460;-73
2022/10/12 02:57:14;;;;;;;14.60;8.90;;;8.60;81.10;;;;;;5097145;28;20478;-73
2022/10/12 02:59:41;;;;;;;12.50;10.17;;;8.60;81.10;;;;;;5097035;28;20468;-73
2022/10/12 03:02:09;;;;;;;10.43;7.77;;;8.60;81.20;;;;;;5096948;28;20448;-73
2022/10/12 03:04:37;;;;;;;13.37;9.37;;;8.60;81.00;;;;;;5096727;28;20452;-73
2022/10/12 03:07:04;;;;;;;9.93;8.93;;;8.60;81.20;;;;;;5096917;28;20467;-73
2022/10/12 03:09:31;;;;;;;15.50;9.60;;;8.60;81.30;;;;;;5096711;28;20486;-73
2022/10/12 03:11:58;;;;;;;10.67;8.27;;;8.60;81.00;;;;;;5096606;28;20483;-73
2022/10/12 03:14:26;;;;;;;12.43;9.27;;;8.60;81.10;;;;;;5096644;28;20451;-73
2022/10/12 03:16:53;;;;;;;9.60;8.33;;;8.50;80.90;;;;;;5096685;28;20502;-73
2022/10/12 03:19:20;;;;;;;10.33;7.97;;;8.50;81.00;;;;;;5096629;28;20474;-73
2022/10/12 03:21:48;;;;;;;13.33;9.63;;;8.50;81.00;;;;;;5096439;28;20459;-73
2022/10/12 03:24:15;;;;;;;11.23;8.23;;;8.50;80.90;;;;;;5096206;28;20456;-73
2022/10/12 03:26:41;;;;;;;12.60;9.30;;;8.50;81.10;;;;;;5095313;28;20865;-73
2022/10/12 03:29:09;;;;;;;10.97;8.10;;;8.50;81.10;;;;;;5096383;28;20468;-73
2022/10/12 03:31:35;;;;;;;12.83;8.37;;;8.40;81.20;;;;;;5096264;28;20491;-73
2022/10/12 03:34:02;;;;;;;14.83;8.73;;;8.40;81.50;;;;;;5096132;28;20550;-73
2022/10/12 03:36:29;;;;;;;12.47;8.50;;;8.40;81.80;;;;;;5095952;28;20553;-73
2022/10/12 03:38:57;;;;;;;13.53;7.33;;;8.30;81.30;;;;;;5096217;28;20454;-73
2022/10/12 03:41:24;;;;;;;10.00;7.17;;;8.30;81.30;;;;;;5096302;28;20460;-73
2022/10/12 03:43:51;;;;;;;9.30;7.27;;;8.30;81.60;;;;;;5095914;28;20824;-72
2022/10/12 03:46:18;;;;;;;12.23;8.87;;;8.30;81.40;;;;;;5096404;28;20434;-73
2022/10/12 03:48:45;;;;;;;9.50;7.10;;;8.20;81.50;;;;;;5095998;28;20452;-73
2022/10/12 03:51:11;;;;;;;10.10;7.97;;;8.20;81.60;;;;;;5109642;28;20442;-71
2022/10/12 03:53:38;;;;;;;10.20;8.30;;;8.20;81.70;;;;;;5116232;28;20480;-72
2022/10/12 03:56:07;;;;;;;12.30;7.90;;;8.20;81.40;;;;;;5097441;28;20450;-72
2022/10/12 03:58:33;;;;;;;10.90;9.17;;;8.20;81.50;;;;;;5096962;28;20457;-72
2022/10/12 04:01:00;;;;;;;9.87;8.23;;;8.10;81.90;;;;;;5096291;28;20468;-72
2022/10/12 04:03:27;;;;;;;11.10;7.93;;;8.10;82.10;;;;;;5095906;28;20431;-73
2022/10/12 04:05:54;;;;;;;13.87;8.40;;;8.10;82.10;;;;;;5095634;28;20456;-73
2022/10/12 04:08:21;;;;;;;11.77;7.67;;;8.10;82.40;;;;;;5095743;28;20448;-73
2022/10/12 04:10:49;;;;;;;11.80;8.30;;;8.10;82.50;;;;;;5095418;28;20839;-72
2022/10/12 04:13:17;;;;;;;11.13;7.80;;;8.00;82.60;;;;;;5095874;28;20480;-72
2022/10/12 04:15:44;;;;;;;8.70;7.00;;;8.10;82.90;;;;;;5095424;28;20445;-72
2022/10/12 04:18:10;;;;;;;11.83;7.70;;;8.10;83.10;;;;;;5095584;28;20456;-72
2022/10/12 04:20:37;;;;;;;11.50;7.50;;;8.10;83.00;;;;;;5095306;28;20474;-73
2022/10/12 04:23:04;;;;;;;9.20;7.17;;;8.10;83.10;;;;;;5094831;28;20474;-73
2022/10/12 04:25:31;;;;;;;12.80;7.90;;;8.10;83.30;;;;;;5095361;28;20450;-73
2022/10/12 04:27:58;;;;;;;13.93;7.17;;;8.10;83.60;;;;;;5095303;28;20468;-73
2022/10/12 04:30:26;;;;;;;12.63;7.93;;;8.10;83.80;;;;;;5094732;28;20898;-72
2022/10/12 04:32:53;;;;;;;11.60;7.67;;;8.10;83.90;;;;;;5095293;28;20479;-73
2022/10/12 04:35:19;;;;;;;12.17;7.73;;;8.10;84.10;;;;;;5095340;28;20462;-72
2022/10/12 04:37:46;;;;;;;9.90;7.30;;;8.10;84.20;;;;;;5095959;28;20431;-73
2022/10/12 04:40:13;;;;;;;9.70;7.10;;;8.10;84.40;;;;;;5096014;28;20465;-73
2022/10/12 04:42:40;;;;;;;12.23;7.43;;;8.20;84.50;;;;;;5095380;28;20797;-74
2022/10/12 04:45:08;;;;;;;10.30;6.90;;;8.20;84.60;;;;;;5094503;28;20477;-74
2022/10/12 04:47:36;;;;;;;11.60;6.90;;;8.10;84.60;;;;;;5094764;28;20440;-74
2022/10/12 04:50:04;;;;;;;11.03;7.73;;;8.20;84.80;;;;;;5094522;28;20464;-74
2022/10/12 04:52:31;;;;;;;11.17;7.67;;;8.20;84.80;;;;;;5094647;28;20483;-74
2022/10/12 04:54:57;;;;;;;12.37;7.50;;;8.20;84.80;;;;;;5094971;28;20451;-74
2022/10/12 04:57:24;;;;;;;13.30;8.40;;;8.20;84.80;;;;;;5094624;28;20450;-74
2022/10/12 04:59:51;;;;;;;9.87;7.30;;;8.20;84.80;;;;;;5094737;28;20475;-74
2022/10/12 05:02:17;;;;;;;8.13;6.77;;;8.20;84.70;;;;;;5094415;28;20446;-74
2022/10/12 05:04:46;;;;;;;11.53;7.30;;;8.20;84.80;;;;;;5093952;28;20969;-74
2022/10/12 05:07:12;;;;;;;13.37;8.07;;;8.20;84.70;;;;;;5094918;28;20778;-74
2022/10/12 05:09:39;;;;;;;8.87;6.80;;;8.20;84.70;;;;;;5094170;28;20479;-74
2022/10/12 05:12:06;;;;;;;9.93;7.00;;;8.20;85.30;;;;;;5094015;28;20466;-74
2022/10/12 05:14:33;;;;;;;8.70;6.50;;;8.20;84.50;;;;;;5094373;28;20487;-74
2022/10/12 05:16:59;;;;;;;11.30;7.50;;;8.20;84.50;;;;;;5094192;28;20462;-74
2022/10/12 05:19:26;;;;;;;10.23;7.17;;;8.20;84.50;;;;;;5093903;28;20468;-74
2022/10/12 05:21:54;;;;;;;8.33;6.93;;;8.20;84.40;;;;;;5094023;28;20445;-74
2022/10/12 05:24:21;;;;;;;11.70;6.80;;;8.20;84.40;;;;;;5093686;28;20943;-74
2022/10/12 05:26:48;;;;;;;10.17;6.63;;;8.20;84.60;;;;;;5094119;28;20474;-74
2022/10/12 05:29:14;;;;;;;10.13;6.97;;;8.20;84.70;;;;;;5093934;28;20470;-74
2022/10/12 05:31:41;;;;;;;9.20;7.30;;;8.10;84.80;;;;;;5093825;28;20960;-74
2022/10/12 05:34:08;;;;;;;10.33;6.87;;;8.10;85.10;;;;;;5093824;28;20490;-74
2022/10/12 05:36:35;;;;;;;10.80;7.30;;;8.20;85.50;;;;;;5093948;28;20460;-74
2022/10/12 05:39:04;;;;;;;12.20;7.00;;;8.20;85.30;;;;;;5093733;28;20435;-74
2022/10/12 05:41:30;;;;;;;11.13;6.73;;;8.10;85.10;;;;;;5093804;28;20454;-74
2022/10/12 05:43:57;;;;;;;12.20;7.03;;;8.10;85.00;;;;;;5093870;28;20451;-74
2022/10/12 05:46:24;;;;;;;12.00;7.17;;;8.10;85.00;;;;;;5094365;28;20449;-74
2022/10/12 05:48:51;;;;;;;8.40;6.60;;;8.00;84.90;;;;;;5093358;28;20451;-74
2022/10/12 05:51:18;;;;;;;9.63;6.50;;;8.00;84.90;;;;;;5093796;28;20451;-74
2022/10/12 05:53:44;;;;;;;10.07;6.60;;;8.10;85.30;;;;;;5093695;28;20485;-74
2022/10/12 05:56:13;;;;;;;9.70;7.00;;;8.10;85.70;;;;;;5093368;28;20451;-74
2022/10/12 05:58:41;;;;;;;11.50;6.30;;;8.10;85.80;;;;;;5093676;28;20444;-74
2022/10/12 06:01:09;;;;;;;11.23;7.00;;;8.10;85.50;;;;;;5093150;28;20981;-74
2022/10/12 06:03:36;;;;;;;9.87;7.23;;;8.00;85.30;;;;;;5093766;28;20459;-74
2022/10/12 06:06:05;;;;;;;8.73;6.80;;;8.00;85.40;;;;;;5093611;28;20451;-74
2022/10/12 06:08:33;;;;;;;11.67;7.30;;;8.00;85.40;;;;;;5093479;28;20528;-74
2022/10/12 06:10:59;;;;;;;11.37;7.13;;;8.00;85.50;;;;;;5093238;28;20484;-74
2022/10/12 06:13:27;;;;;;;9.30;6.20;;;8.00;85.50;;;;;;5093075;28;21026;-74
2022/10/12 06:15:54;;;;;;;9.10;6.50;;;8.00;85.50;;;;;;5093397;28;20462;-74
2022/10/12 06:18:22;;;;;;;16.80;6.33;;;8.10;85.50;;;;;;5093494;28;20482;-74
2022/10/12 06:20:50;;;;;;;12.07;6.83;;;8.00;85.40;;;;;;5093586;28;20477;-74
2022/10/12 06:23:17;;;;;;;9.50;6.87;;;8.00;85.50;;;;;;5093231;28;20462;-74
2022/10/12 06:25:46;;;;;;;11.53;7.00;;;8.00;85.60;;;;;;5093280;28;20882;-74
2022/10/12 06:28:13;;;;;;;13.70;7.77;;;8.00;85.60;;;;;;5093162;28;20849;-74
2022/10/12 06:30:41;;;;;;;16.40;7.23;;;8.10;86.00;;;;;;5093276;28;20477;-74
2022/10/12 06:33:08;;;;;;;11.70;7.87;;;8.00;86.10;;;;;;5093328;28;20486;-74
2022/10/12 06:35:35;;;;;;;11.83;7.10;;;8.10;86.50;;;;;;5093338;28;20451;-74
2022/10/12 06:38:01;;;;;;;10.03;6.40;;;8.10;86.50;;;;;;5093423;28;20450;-74
2022/10/12 06:40:28;;;;;;;9.80;6.80;;;8.10;86.70;;;;;;5093347;28;20532;-74
2022/10/12 06:42:55;;;;;;;11.03;7.50;;;8.20;86.90;;;;;;5093600;28;20445;-74
2022/10/12 06:45:22;;;;;;;8.87;6.80;;;8.20;87.20;;;;;;5092763;28;20856;-74
2022/10/12 06:47:50;;;;;;;9.30;7.00;;;8.20;87.40;;;;;;5092929;28;21018;-74
2022/10/12 06:50:17;;;;;;;10.73;7.37;;;8.20;87.50;;;;;;5092914;28;20985;-74
2022/10/12 06:52:44;;;;;;;10.40;7.57;;;8.30;87.70;;;;;;5092856;28;20975;-74
2022/10/12 06:55:11;;;;;;;10.73;7.10;;;8.30;87.90;;;;;;5092991;28;20490;-74
2022/10/12 06:57:38;;;;;;;10.10;7.47;;;8.30;88.30;;;;;;5093048;28;20451;-74
2022/10/12 07:00:07;;;;;;;9.43;6.90;;;8.30;88.70;;;;;;5093168;28;20475;-74
2022/10/12 07:02:34;;;;;;;12.70;8.93;;;8.30;89.00;;;;;;5102034;28;20444;-73
2022/10/12 07:05:03;;;;;;;15.87;8.47;;;8.30;89.40;;;;;;5099694;28;20478;-73
2022/10/12 07:07:31;;;;;;;15.60;7.97;;;8.40;89.90;;;;;;5097092;28;20515;-73
2022/10/12 07:09:58;;;;;;;16.60;8.20;;;8.40;90.10;;;;;;5096459;28;20510;-73
2022/10/12 07:12:25;;;;;;;12.43;8.10;;;8.50;90.40;;;;;;5096610;28;20450;-73
2022/10/12 07:14:53;;;;;;;15.00;8.70;;;8.50;90.50;;;;;;5096203;28;20505;-73
2022/10/12 07:17:20;;;;;;;18.93;8.57;;;8.60;90.70;;;;;;5096323;28;20455;-73
2022/10/12 07:19:47;;;;;;;19.60;8.30;;;8.70;91.00;;;;;;5096272;28;20472;-73
2022/10/12 07:22:15;;;;;;;21.73;8.10;;;8.70;91.30;;;;;;5096192;28;20933;-73
2022/10/12 07:24:42;;;;;;;17.37;8.23;;;8.80;91.40;;;;;;5095766;28;20479;-75
2022/10/12 07:27:10;;;;;;;15.03;7.43;;;8.90;91.50;;;;;;5095885;28;20519;-74
2022/10/12 07:29:38;;;;;;;13.33;8.53;;;8.90;91.50;;;;;;5096078;28;20475;-74
2022/10/12 07:32:06;;;;;;;14.73;8.40;;;9.00;91.70;;;;;;5096089;28;20448;-74
2022/10/12 07:34:33;;;;;;;13.90;8.17;;;9.10;91.70;;;;;;5095865;28;20480;-74
2022/10/12 07:37:01;;;;;;;16.03;9.30;;;9.10;91.70;;;;;;5095659;28;20989;-74
2022/10/12 07:39:29;;;;;;;10.53;8.40;;;9.20;91.90;;;;;;5095774;28;20490;-74
2022/10/12 07:41:56;;;;;;;13.97;9.00;;;9.30;92.10;;;;;;5095906;28;20444;-74
2022/10/12 07:44:23;;;;;;;14.53;8.20;;;9.40;92.20;;;;;;5095657;28;20444;-74
2022/10/12 07:46:50;;;;;;;12.53;8.73;;;9.50;92.30;;;;;;5095791;28;20485;-74
2022/10/12 07:49:18;;;;;;;11.40;9.10;;;9.50;92.20;;;;;;5095832;28;20482;-74
2022/10/12 07:51:45;;;;;;;16.97;9.17;;;9.60;92.10;;;;;;5095699;28;20456;-74
2022/10/12 07:54:12;;;;;;;14.40;9.87;;;9.70;92.30;;;;;;5095249;28;21007;-74
2022/10/12 07:56:41;;;;;;;14.63;8.70;;;9.80;92.10;;;;;;5095531;28;20476;-74
2022/10/12 07:59:08;;;;;;;11.63;8.47;;;9.90;92.00;;;;;;5095525;28;20824;-75
2022/10/12 08:01:34;;;;;;;16.80;9.30;;;10.00;91.40;;;;;;5095594;28;20464;-75
2022/10/12 08:04:02;;;;;;;16.83;9.87;;;10.20;91.50;;;;;;5095366;28;20927;-75
2022/10/12 08:06:31;;;;;;;15.47;8.80;;;10.30;91.40;;;;;;5095319;28;20456;-75
2022/10/12 08:08:58;;;;;;;11.60;7.67;;;10.40;91.20;;;;;;5095259;28;20441;-75
2022/10/12 08:11:26;;;;;;;11.03;8.37;;;10.50;91.10;;;;;;5094773;28;20457;-75
2022/10/12 08:13:54;;;;;;;15.30;8.10;;;10.60;90.90;;;;;;5095660;28;20998;-75
2022/10/12 08:16:22;;;;;;;11.93;7.60;;;10.80;90.60;;;;;;5095396;28;20480;-75
2022/10/12 08:18:49;;;;;;;12.73;7.33;;;10.90;90.40;;;;;;5094658;28;20808;-74
2022/10/12 08:21:17;;;;;;;14.17;8.63;;;11.00;90.20;;;;;;5095757;28;20458;-74
2022/10/12 08:23:45;;;;;;;11.23;8.10;;;11.10;89.80;;;;;;5094605;28;20486;-75
2022/10/12 08:26:12;;;;;;;14.53;8.00;;;11.20;89.40;;;;;;5094911;28;20851;-75
2022/10/12 08:28:39;;;;;;;11.13;7.80;;;11.30;89.10;;;;;;5094961;28;20467;-75
2022/10/12 08:31:09;;;;;;;13.13;8.40;;;11.30;88.40;;;;;;5095378;28;20466;-73
2022/10/12 08:33:36;;;;;;;12.47;9.27;;;11.40;87.80;;;;;;5094633;28;20445;-74
2022/10/12 08:36:04;;;;;;;13.33;8.13;;;11.60;87.80;;;;;;5094867;28;20459;-74
2022/10/12 08:38:31;;;;;;;9.83;8.07;;;11.60;87.50;;;;;;5094985;28;20449;-74
2022/10/12 08:41:05;;;;;;;15.73;9.00;;;11.80;87.20;;;;;;5094804;28;20474;-75
2022/10/12 08:43:43;;;;;;;11.57;7.97;;;11.90;86.70;;;;;;5094854;28;20778;-74
2022/10/12 08:46:11;;;;;;;15.30;8.77;;;12.10;86.50;;;;;;5094724;28;20436;-75
2022/10/12 08:48:47;;;;;;;13.93;9.10;;;12.20;85.90;;;;;;5094546;28;20945;-75
2022/10/12 08:51:17;;;;;;;12.90;8.93;;;12.40;86.00;;;;;;5094214;28;20436;-75
2022/10/12 08:53:49;;;;;;;14.10;8.23;;;12.60;85.70;;;;;;5094006;28;20993;-75
2022/10/12 08:56:18;;;;;;;14.67;8.53;;;12.70;86.20;;;;;;5094678;28;20779;-75
2022/10/12 08:58:46;;;;;;;14.00;9.20;;;12.90;84.90;;;;;;5094459;28;20486;-75
2022/10/12 09:01:22;;;;;;;11.73;7.63;;;13.00;83.90;;;;;;5094281;28;20453;-75
2022/10/12 09:04:07;;;;;;;18.40;8.60;;;13.00;83.10;;;;;;5094108;28;20435;-75
2022/10/12 09:06:39;;;;;;;13.10;8.17;;;13.10;82.30;;;;;;5094059;28;20909;-75
2022/10/12 09:09:18;;;;;;;8.83;7.13;;;13.10;82.40;;;;;;5094253;28;20464;-75
2022/10/12 09:12:05;;;;;;;14.83;7.63;;;13.10;81.90;;;;;;5094488;28;20431;-75
2022/10/12 09:14:34;;;;;;;12.10;7.50;;;13.20;81.30;;;;;;5093916;28;20995;-75
2022/10/12 09:17:09;;;;;;;12.47;8.07;;;13.20;80.60;;;;;;5094301;28;20450;-75
2022/10/12 09:19:40;;;;;;;12.50;6.60;;;13.20;80.30;;;;;;5094117;28;20983;-75
2022/10/12 09:22:15;;;;;;;11.47;6.70;;;13.30;79.40;;;;;;5093756;28;20449;-75
2022/10/12 09:24:42;;;;;;;11.73;7.70;;;13.30;79.10;;;;;;5093133;28;20852;-75
2022/10/12 09:27:14;;;;;;;11.07;6.60;;;13.30;79.20;;;;;;5093909;28;20453;-75
2022/10/12 09:29:42;;;;;;;9.50;6.70;;;13.50;79.00;;;;;;5094250;28;20512;-75
2022/10/12 09:32:47;;;;;;;10.50;5.97;;;13.60;78.40;;;;;;5093724;28;20458;-75
2022/10/12 09:35:16;;;;;;;13.37;6.03;;;13.70;77.80;;;;;;5067465;28;20497;-75
2022/10/12 09:37:52;;;;;;;12.90;7.00;;;13.80;77.80;;;;;;5093828;28;20451;-75
2022/10/12 09:40:23;;;;;;;10.80;6.00;;;13.90;77.20;;;;;;5093287;28;20488;-75
2022/10/12 09:42:51;;;;;;;12.10;5.40;;;14.00;77.30;;;;;;5093771;28;20444;-75
2022/10/12 09:45:20;;;;;;;10.33;6.30;;;14.20;77.00;;;;;;5093764;28;20447;-75
2022/10/12 09:48:20;;;;;;;11.67;5.50;;;14.40;76.90;;;;;;5093379;28;20828;-75
2022/10/12 09:50:53;;;;;;;9.30;5.10;;;14.70;75.10;;;;;;5093254;28;20466;-75
2022/10/12 09:53:32;;;;;;;10.23;4.83;;;15.00;73.60;;;;;;5093780;28;20445;-75
2022/10/12 09:56:08;;;;;;;15.60;5.37;;;15.20;72.70;;;;;;5093490;28;20562;-75
2022/10/12 09:58:42;;;;;;;10.83;4.50;;;15.50;71.90;;;;;;5093445;28;20489;-75
2022/10/12 10:01:20;;;;;;;11.43;4.90;;;15.80;70.70;;;;;;5093223;28;20469;-75
2022/10/12 10:03:50;;;;;;;9.70;4.50;;;16.10;68.30;;;;;;5093642;28;20488;-75
2022/10/12 10:06:23;;;;;;;7.47;4.30;;;16.50;66.00;;;;;;5093706;28;20490;-75
2022/10/12 10:08:50;;;;;;;10.23;5.07;;;17.00;65.20;;;;;;5093390;28;20440;-75
2022/10/12 10:11:21;;;;;;;8.00;3.83;;;17.40;62.20;;;;;;5094480;28;20450;-74
2022/10/12 10:13:50;;;;;;;6.23;3.90;;;17.90;59.80;;;;;;5096602;28;20440;-74
2022/10/12 10:16:18;;;;;;;7.97;4.10;;;18.40;57.90;;;;;;5094431;28;20780;-75
2022/10/12 10:18:47;;;;;;;4.70;3.77;;;18.70;56.70;;;;;;5093635;28;20526;-75
2022/10/12 10:21:23;;;;;;;6.13;4.23;;;19.10;56.50;;;;;;5094385;28;20501;-75
2022/10/12 10:23:54;;;;;;;9.53;3.70;;;19.70;55.50;;;;;;5093113;28;20490;-75
2022/10/12 10:26:22;;;;;;;15.07;4.53;;;20.30;52.80;;;;;;5093190;28;20954;-75
2022/10/12 10:28:52;;;;;;;6.80;3.93;;;20.80;50.40;;;;;;5093324;28;20803;-75
2022/10/12 10:31:22;;;;;;;8.70;3.50;;;21.40;48.40;;;;;;5094010;28;20462;-75
2022/10/12 10:34:12;;;;;;;11.20;3.63;;;21.90;46.70;;;;;;5093132;28;20456;-75
2022/10/12 10:36:44;;;;;;;10.67;4.03;;;22.40;45.10;;;;;;5096569;28;20903;-75
2022/10/12 10:39:19;;;;;;;6.13;3.27;;;22.90;44.00;;;;;;5096948;28;20504;-75
2022/10/12 10:41:46;;;;;;;10.10;3.40;;;23.30;42.30;;;;;;5097037;28;20858;-75
2022/10/12 10:44:32;;;;;;;9.40;3.63;;;23.70;42.00;;;;;;5097004;28;20459;-75
2022/10/12 10:47:02;;;;;;;9.83;3.70;;;23.90;40.50;;;;;;5096890;28;20436;-76
2022/10/12 10:49:37;;;;;;;12.53;3.50;;;23.90;39.80;;;;;;5096868;28;20460;-76
2022/10/12 10:52:06;;;;;;;8.80;3.67;;;23.90;40.00;;;;;;5097029;28;20423;-76
2022/10/12 10:54:37;;;;;;;7.33;3.60;;;24.10;40.00;;;;;;5096696;28;20483;-76
2022/10/12 10:57:10;;;;;;;8.83;3.60;;;24.50;41.10;;;;;;5096680;28;20435;-76
2022/10/12 10:59:48;;;;;;;8.33;4.10;;;24.70;38.90;;;;;;5096605;28;20468;-76
2022/10/12 11:02:31;;;;;;;5.30;3.47;;;24.70;37.70;;;;;;5096533;28;20436;-76
2022/10/12 11:05:04;;;;;;;9.73;4.33;;;24.70;38.20;;;;;;5096603;28;20424;-76
2022/10/12 11:07:37;;;;;;;9.00;3.70;;;24.70;37.80;;;;;;5096197;28;20436;-76
2022/10/12 11:10:15;;;;;;;7.97;3.20;;;24.70;38.30;;;;;;5096321;28;20476;-76
2022/10/12 11:12:48;;;;;;;8.20;4.30;;;24.90;38.20;;;;;;5096029;28;20447;-76
2022/10/12 11:15:22;;;;;;;10.13;3.70;;;25.00;36.70;;;;;;5096290;28;20475;-76
2022/10/12 11:17:50;;;;;;;7.13;3.47;;;24.90;37.10;;;;;;5096602;28;20424;-76
2022/10/12 11:20:43;;;;;;;7.20;3.33;;;25.10;36.60;;;;;;5096229;28;20467;-76
2022/10/12 11:23:19;;;;;;;8.93;3.63;;;25.40;35.60;;;;;;5094850;28;20985;-76
2022/10/12 11:26:00;;;;;;;8.77;3.87;;;25.80;36.40;;;;;;5095920;28;20802;-76
2022/10/12 11:28:31;;;;;;;8.63;3.50;;;26.30;34.60;;;;;;5096419;28;20428;-76
2022/10/12 11:30:57;;;;;;;7.60;4.00;;;26.60;33.30;;;;;;5095730;28;20514;-76
2022/10/12 11:33:29;;;;;;;13.50;3.50;;;27.00;33.20;;;;;;5096015;28;20453;-76
2022/10/12 11:35:58;;;;;;;8.33;3.47;;;27.40;32.20;;;;;;5095950;28;20479;-76
2022/10/12 11:38:30;;;;;;;6.13;2.83;;;27.50;32.50;;;;;;5095847;28;20440;-76
2022/10/12 11:41:05;;;;;;;7.27;3.33;;;27.50;32.20;;;;;;5095903;28;20475;-76
2022/10/12 11:43:35;;;;;;;7.27;3.30;;;27.40;32.20;;;;;;5095985;28;20427;-76
2022/10/12 11:46:06;;;;;;;8.53;3.53;;;27.20;33.40;;;;;;5095468;28;20429;-76
2022/10/12 11:48:36;;;;;;;6.57;3.03;;;27.40;32.70;;;;;;5095135;28;20914;-76
2022/10/12 11:51:05;;;;;;;6.47;3.70;;;27.50;32.40;;;;;;5095697;28;20463;-76
2022/10/12 11:53:46;;;;;;;4.93;3.13;;;27.70;31.90;;;;;;5095634;28;20805;-76
2022/10/12 11:56:19;;;;;;;8.77;3.17;;;28.10;31.30;;;;;;5095230;28;20490;-77
2022/10/12 11:58:49;;;;;;;7.20;3.93;;;28.80;30.10;;;;;;5095693;28;20432;-76
2022/10/12 12:01:29;;;;;;;8.60;3.80;;;29.40;29.50;;;;;;5095617;28;20444;-76
2022/10/12 12:04:14;;;;;;;11.63;3.50;;;29.80;28.50;;;;;;5095571;28;20457;-76
2022/10/12 12:06:50;;;;;;;10.20;4.23;;;29.90;28.00;;;;;;5096356;28;20456;-76
2022/10/12 12:09:32;;;;;;;7.63;3.60;;;29.90;28.00;;;;;;5095678;28;20472;-76
2022/10/12 12:12:13;;;;;;;7.90;3.80;;;29.20;28.40;;;;;;5095176;28;20436;-76
2022/10/12 12:15:01;;;;;;;9.23;3.80;;;28.20;29.50;;;;;;5095202;28;20436;-76
2022/10/12 12:17:30;;;;;;;6.00;3.20;;;27.40;30.90;;;;;;5095528;28;20432;-76
2022/10/12 12:19:58;;;;;;;8.13;3.47;;;26.90;32.20;;;;;;5094847;28;21016;-76
2022/10/12 12:22:33;;;;;;;6.37;3.30;;;26.50;33.40;;;;;;5095470;28;20452;-76
2022/10/12 12:25:15;;;;;;;17.47;4.47;;;26.40;34.40;;;;;;5095070;28;20436;-77
2022/10/12 12:27:45;;;;;;;10.23;3.67;;;26.50;33.40;;;;;;5095017;28;20428;-76
2022/10/12 12:30:33;;;;;;;7.03;3.60;;;26.40;33.00;;;;;;5094964;28;20471;-77
2022/10/12 12:33:02;;;;;;;8.33;3.70;;;26.30;33.60;;;;;;5095184;28;20443;-76
2022/10/12 12:35:36;;;;;;;7.57;4.03;;;26.10;33.80;;;;;;5095293;28;20494;-76
2022/10/12 12:38:21;;;;;;;9.90;3.73;;;25.80;34.20;;;;;;5094444;28;20946;-76
2022/10/12 12:41:05;;;;;;;9.60;3.70;;;25.40;34.90;;;;;;5094760;28;20471;-76
2022/10/12 12:43:53;;;;;;;7.10;3.93;;;25.20;35.80;;;;;;5094815;28;20436;-76
2022/10/12 12:46:21;;;;;;;8.90;4.37;;;25.10;36.70;;;;;;5094360;28;20437;-76
2022/10/12 12:49:02;;;;;;;11.63;4.40;;;25.00;37.20;;;;;;5094558;28;20454;-76
2022/10/12 12:51:38;;;;;;;9.90;4.17;;;25.40;37.10;;;;;;5094262;28;20443;-76
2022/10/12 12:54:12;;;;;;;12.77;4.57;;;26.00;35.60;;;;;;5094506;28;20444;-76
2022/10/12 12:56:49;;;;;;;11.20;4.40;;;26.60;33.90;;;;;;5094480;28;20472;-76
2022/10/12 12:59:54;;;;;;;8.30;3.60;;;27.20;33.10;;;;;;5094416;28;20503;-76
2022/10/12 13:03:02;;;;;;;10.43;3.20;;;28.20;32.60;;;;;;5094611;28;20463;-76